Terminal Aerodrome Forecast
Issued by NWS

Home | Current Version | Previous Version | Text Only | Print | Product List | Glossary On
Versions: 1 2 3 4 5 6 7 8 9 10 11 12 13 14 15 16 17 18 19 20 21 22 23 24 25 26 27 28 29 30 31 32
000
FTUS45 KGJT 290533
TAFEGE
TAF
KEGE 290533Z 2906/3006 08006KT P6SM FEW110
     FM291200 VRB03KT P6SM SCT200
     FM291800 VRB03KT P6SM BKN200
     FM292000 23005KT P6SM VCTS SCT070CB BKN110
     FM300200 10004KT P6SM SCT090 BKN150
      AMD LTD TO CLD VIS AND WIND TIL 291300=

USA.gov is the U.S. government's official web portal to all federal, state and local government web resources and services.